Time;durP1;ratioP1;P1;durP2;ratioP2;P2;SDS_P1;SDS_P2;PMS_P1;PMS_P2;Temp;Humidity;BMP_temperature;BMP_pressure;BME280_temperature;BME280_humidity;BME280_pressure;Samples;Min_cycle;Max_cycle;Signal;HPM_P1;HPM_P2
2023/08/27 00:04:31;;;;;;;2.42;1.00;;;;;;;15.02;61.44;99415.09;10388312;28;20048;-64
2023/08/27 00:09:33;;;;;;;1.10;1.00;;;;;;;15.07;61.50;99396.28;10391859;28;20060;-64
2023/08/27 00:14:35;;;;;;;2.53;1.35;;;;;;;15.01;61.59;99370.47;10389503;28;20062;-64
2023/08/27 00:19:37;;;;;;;2.58;1.38;;;;;;;14.97;61.63;99382.22;10388224;28;20044;-64
2023/08/27 00:24:39;;;;;;;1.48;1.00;;;;;;;15.04;61.47;99397.38;10388769;28;20044;-65
2023/08/27 00:29:41;;;;;;;13.38;1.95;;;;;;;14.91;61.67;99398.56;10390586;28;20038;-65
2023/08/27 00:34:43;;;;;;;1.67;1.15;;;;;;;14.69;61.81;99380.31;10422127;28;20091;-65
2023/08/27 00:39:45;;;;;;;1.02;0.90;;;;;;;14.74;61.85;99412.31;10386133;28;20075;-65
2023/08/27 00:44:47;;;;;;;1.52;1.10;;;;;;;14.82;61.82;99386.22;10389406;28;20417;-64
2023/08/27 00:49:50;;;;;;;2.85;1.30;;;;;;;14.65;61.89;99363.13;10402720;28;20096;-65
2023/08/27 00:54:55;;;;;;;1.42;0.95;;;;;;;14.51;62.35;99401.94;10388429;28;20096;-64
2023/08/27 00:59:58;;;;;;;1.40;1.05;;;;;;;14.62;62.21;99403.69;10392691;28;20041;-65
2023/08/27 01:05:00;;;;;;;1.55;1.10;;;;;;;14.67;62.18;99429.63;10395123;28;20196;-65
2023/08/27 01:10:22;;;;;;;1.52;0.93;;;;;;;14.64;62.68;99408.81;10400379;28;20100;-65
2023/08/27 01:15:25;;;;;;;1.98;1.10;;;;;;;14.70;62.04;99421.44;10386009;28;20191;-65
2023/08/27 01:20:29;;;;;;;5.40;1.25;;;;;;;14.68;62.26;99418.09;10385934;28;20188;-65
2023/08/27 01:25:41;;;;;;;1.55;1.10;;;;;;;14.74;62.34;99413.16;10385924;28;20810;-65
2023/08/27 01:30:56;;;;;;;1.65;1.02;;;;;;;14.79;62.19;99396.97;10403788;28;20045;-65
2023/08/27 01:35:58;;;;;;;1.23;1.08;;;;;;;14.82;62.05;99379.13;10400999;28;20188;-65
2023/08/27 01:41:00;;;;;;;1.92;1.10;;;;;;;14.85;62.16;99367.50;10390578;28;20533;-65
2023/08/27 01:46:03;;;;;;;1.58;1.10;;;;;;;14.82;61.98;99358.06;10387440;28;20068;-65
2023/08/27 01:51:05;;;;;;;1.10;1.00;;;;;;;14.70;62.41;99340.69;10419756;28;20042;-63
2023/08/27 01:56:07;;;;;;;2.95;1.30;;;;;;;14.66;62.26;99333.19;10385214;28;20049;-63
2023/08/27 02:01:10;;;;;;;2.55;1.13;;;;;;;14.68;62.22;99339.16;10385726;28;20037;-63
2023/08/27 02:06:12;;;;;;;2.33;1.20;;;;;;;14.59;62.25;99333.72;10406308;28;20046;-63
2023/08/27 02:11:14;;;;;;;1.73;1.00;;;;;;;14.59;62.18;99352.13;10391365;28;20179;-63
2023/08/27 02:16:16;;;;;;;1.90;1.20;;;;;;;14.57;62.44;99354.06;10407216;28;20248;-63
2023/08/27 02:21:18;;;;;;;5.50;1.20;;;;;;;14.59;62.26;99356.59;10406961;28;20061;-65
2023/08/27 02:26:21;;;;;;;1.70;1.10;;;;;;;14.46;62.70;99371.69;10410233;28;20509;-64
2023/08/27 02:31:24;;;;;;;2.38;1.20;;;;;;;14.44;62.77;99348.16;10405152;28;20135;-64
2023/08/27 02:36:26;;;;;;;2.22;1.30;;;;;;;14.26;62.97;99336.56;10400973;28;20053;-65
2023/08/27 02:41:27;;;;;;;2.83;1.17;;;;;;;14.21;63.19;99330.00;10421910;28;20052;-64
2023/08/27 02:46:30;;;;;;;1.17;1.00;;;;;;;14.33;63.12;99344.78;10389006;28;20067;-65
2023/08/27 02:51:35;;;;;;;1.63;1.10;;;;;;;14.28;63.11;99345.16;10417629;28;20084;-66
2023/08/27 02:56:37;;;;;;;2.10;1.25;;;;;;;14.36;62.98;99350.59;10406684;28;20823;-63
2023/08/27 03:01:39;;;;;;;3.05;1.20;;;;;;;14.34;62.89;99360.41;10403997;28;20118;-63
2023/08/27 03:06:41;;;;;;;1.92;1.20;;;;;;;14.34;62.89;99370.09;10407700;28;21067;-63
2023/08/27 03:11:43;;;;;;;2.33;0.93;;;;;;;14.31;62.91;99362.44;10409110;28;20048;-63
2023/08/27 03:16:45;;;;;;;2.40;1.02;;;;;;;14.30;63.12;99371.31;10405407;28;20052;-63
2023/08/27 03:21:47;;;;;;;2.22;1.00;;;;;;;14.28;63.12;99357.47;10393640;28;20048;-63
2023/08/27 03:26:50;;;;;;;1.45;1.00;;;;;;;14.23;63.28;99343.84;10400899;28;20048;-63
2023/08/27 03:31:52;;;;;;;1.95;1.15;;;;;;;14.17;63.36;99331.22;10397935;28;20057;-63
2023/08/27 03:36:54;;;;;;;1.75;1.27;;;;;;;13.93;63.79;99318.34;10406814;28;20056;-64
2023/08/27 03:41:55;;;;;;;3.05;0.95;;;;;;;13.98;63.70;99323.22;10389882;28;20042;-64
2023/08/27 03:46:57;;;;;;;1.83;1.00;;;;;;;14.10;63.32;99320.41;10393080;28;20041;-63
2023/08/27 03:51:59;;;;;;;2.33;1.10;;;;;;;14.20;63.55;99326.56;10422300;28;20044;-63
2023/08/27 03:57:02;;;;;;;1.48;1.02;;;;;;;14.21;63.37;99319.47;10394412;28;20123;-64
2023/08/27 04:02:04;;;;;;;1.95;1.13;;;;;;;14.15;63.28;99318.22;10389683;28;20051;-64
2023/08/27 04:07:06;;;;;;;2.75;1.10;;;;;;;14.18;63.47;99310.06;10391844;28;20048;-63
2023/08/27 04:12:08;;;;;;;3.28;1.30;;;;;;;14.02;63.40;99303.59;10403270;28;20049;-64
2023/08/27 04:17:10;;;;;;;1.45;0.90;;;;;;;13.99;63.68;99320.44;10391962;28;20045;-63
2023/08/27 04:22:12;;;;;;;3.95;1.25;;;;;;;13.89;63.64;99306.41;10390223;28;20046;-64
2023/08/27 04:27:13;;;;;;;1.60;1.30;;;;;;;13.77;63.97;99292.50;10389211;28;20049;-64
2023/08/27 04:32:15;;;;;;;1.15;0.95;;;;;;;13.87;63.89;99300.44;10402925;28;20371;-63
2023/08/27 04:37:17;;;;;;;5.18;1.10;;;;;;;13.98;63.94;99289.03;10395422;28;20048;-63
2023/08/27 04:42:19;;;;;;;2.63;1.00;;;;;;;14.00;63.86;99290.59;10390228;28;20057;-63
2023/08/27 04:47:21;;;;;;;4.03;1.08;;;;;;;14.00;63.95;99301.09;10402509;28;20132;-63
2023/08/27 04:52:23;;;;;;;2.17;1.20;;;;;;;13.98;63.86;99303.03;10392668;28;20060;-63
2023/08/27 04:57:36;;;;;;;1.73;1.00;;;;;;;14.01;63.91;99304.53;10389273;28;20128;-63
2023/08/27 05:02:38;;;;;;;1.30;1.00;;;;;;;14.03;64.11;99295.56;10401091;28;20056;-63
2023/08/27 05:07:41;;;;;;;1.60;1.17;;;;;;;14.08;64.07;99309.19;10386534;28;20038;-63
2023/08/27 05:12:43;;;;;;;2.13;1.27;;;;;;;14.17;63.90;99302.28;10398337;28;20061;-63
2023/08/27 05:17:45;;;;;;;1.42;1.10;;;;;;;14.19;63.77;99316.13;10386501;28;20140;-63
2023/08/27 05:22:47;;;;;;;1.48;1.00;;;;;;;14.27;63.65;99318.97;10388464;28;20128;-64
2023/08/27 05:27:49;;;;;;;1.00;0.90;;;;;;;14.13;63.68;99306.13;10393453;28;20407;-64
2023/08/27 05:32:51;;;;;;;2.42;1.00;;;;;;;14.24;63.76;99303.44;10393288;28;20551;-64
2023/08/27 05:37:53;;;;;;;1.77;1.10;;;;;;;14.38;63.20;99300.47;10397920;28;20429;-64
2023/08/27 05:42:55;;;;;;;2.72;1.73;;;;;;;14.36;63.34;99300.63;10389186;28;20410;-64
2023/08/27 05:47:57;;;;;;;1.63;1.33;;;;;;;14.41;63.10;99285.25;10394455;28;20041;-64
2023/08/27 05:53:03;;;;;;;1.58;1.10;;;;;;;14.38;63.15;99306.59;10385206;28;20433;-64
2023/08/27 05:58:06;;;;;;;2.22;1.08;;;;;;;14.53;63.22;99304.47;10386681;28;20046;-64
2023/08/27 06:03:10;;;;;;;2.33;1.50;;;;;;;14.66;62.72;99288.44;10395217;28;20806;-65
2023/08/27 06:08:12;;;;;;;2.42;1.00;;;;;;;14.68;62.90;99283.88;10405752;28;20041;-65
2023/08/27 06:13:14;;;;;;;1.80;1.00;;;;;;;14.74;62.76;99276.28;10395875;28;20049;-64
2023/08/27 06:18:16;;;;;;;1.25;1.13;;;;;;;14.87;62.61;99260.25;10402306;28;20052;-65
2023/08/27 06:23:18;;;;;;;2.15;1.73;;;;;;;15.26;62.21;99270.75;10403839;28;20433;-65
2023/08/27 06:28:21;;;;;;;2.40;1.00;;;;;;;15.58;61.68;99273.13;10396689;28;20038;-65
2023/08/27 06:33:24;;;;;;;2.75;1.10;;;;;;;15.76;61.46;99297.81;10406448;28;20123;-65
2023/08/27 06:38:26;;;;;;;1.88;1.20;;;;;;;15.67;61.98;99311.00;10399657;28;20497;-66
2023/08/27 06:43:29;;;;;;;3.15;1.15;;;;;;;15.64;62.35;99321.81;10401901;28;20029;-66
2023/08/27 06:48:33;;;;;;;2.58;1.02;;;;;;;15.63;62.47;99309.63;10388062;28;20041;-65
2023/08/27 06:53:36;;;;;;;2.17;1.15;;;;;;;15.45;62.48;99282.25;10397298;28;20049;-66
2023/08/27 06:58:39;;;;;;;1.75;1.10;;;;;;;15.31;63.01;99283.47;10402744;28;20482;-65
2023/08/27 07:03:42;;;;;;;1.30;1.15;;;;;;;15.45;63.16;99290.97;10403873;28;20484;-65
2023/08/27 07:08:45;;;;;;;3.75;1.33;;;;;;;15.89;62.18;99287.84;10393955;28;20425;-66
2023/08/27 07:13:49;;;;;;;2.53;1.48;;;;;;;16.47;61.74;99295.66;10405760;28;20206;-65
2023/08/27 07:18:51;;;;;;;3.75;1.60;;;;;;;16.63;61.20;99295.88;10392121;28;20472;-65
2023/08/27 07:23:53;;;;;;;1.85;1.27;;;;;;;16.62;61.77;99310.03;10401295;28;20052;-65
2023/08/27 07:28:56;;;;;;;2.15;1.20;;;;;;;16.42;62.10;99317.16;10417647;28;20111;-66
2023/08/27 07:33:58;;;;;;;2.13;1.20;;;;;;;16.42;61.85;99321.59;10393122;28;20107;-65
2023/08/27 07:39:01;;;;;;;3.00;1.50;;;;;;;16.16;62.38;99335.38;10407356;28;20139;-66
2023/08/27 07:44:03;;;;;;;3.00;1.38;;;;;;;16.39;62.37;99337.72;10406015;28;20052;-64
2023/08/27 07:49:06;;;;;;;2.17;1.50;;;;;;;16.49;61.95;99323.53;10394685;28;20056;-65
2023/08/27 07:54:08;;;;;;;2.47;1.55;;;;;;;16.85;61.39;99322.72;10391388;28;20186;-65
2023/08/27 07:59:10;;;;;;;2.55;0.98;;;;;;;16.95;60.95;99327.97;10384971;28;20498;-65
2023/08/27 08:04:12;;;;;;;1.48;1.13;;;;;;;17.23;60.03;99318.22;10384035;28;20517;-65
2023/08/27 08:09:14;;;;;;;2.10;1.10;;;;;;;17.49;59.83;99313.88;10391419;28;20476;-65
2023/08/27 08:14:17;;;;;;;3.50;0.90;;;;;;;17.60;59.19;99318.97;10390642;28;20545;-61
2023/08/27 08:19:19;;;;;;;1.63;1.10;;;;;;;17.56;59.71;99323.75;10387089;28;20149;-61
2023/08/27 08:24:24;;;;;;;1.65;1.08;;;;;;;17.39;60.42;99323.69;10390355;28;20540;-62
2023/08/27 08:29:27;;;;;;;2.13;1.08;;;;;;;17.17;60.62;99335.50;10386201;28;20048;-62
2023/08/27 08:34:33;;;;;;;1.65;1.08;;;;;;;17.26;60.51;99333.78;10386171;28;20060;-62
2023/08/27 08:39:36;;;;;;;2.13;1.35;;;;;;;17.38;60.65;99327.34;10387260;28;20417;-61
2023/08/27 08:45:07;;;;;;;3.38;1.45;;;;;;;17.45;61.43;99329.22;10391872;28;20489;-61
2023/08/27 08:50:12;;;;;;;2.33;1.40;;;;;;;17.98;60.15;99323.09;10384571;28;20402;-61
2023/08/27 08:55:16;;;;;;;0.82;0.77;;;;;;;18.22;59.96;99324.16;10383032;28;20057;-62
2023/08/27 09:00:19;;;;;;;4.28;1.23;;;;;;;18.88;58.60;99310.28;10387402;28;20042;-61
2023/08/27 09:05:23;;;;;;;1.88;1.38;;;;;;;19.79;57.03;99298.78;10384937;28;20041;-61
2023/08/27 09:10:27;;;;;;;2.70;1.20;;;;;;;20.39;55.94;99293.97;10385431;28;20049;-61
2023/08/27 09:15:30;;;;;;;2.92;1.58;;;;;;;20.97;54.52;99297.94;10382840;28;20063;-62
2023/08/27 09:20:32;;;;;;;1.85;1.00;;;;;;;21.28;54.25;99289.97;10399357;28;20057;-61
2023/08/27 09:25:34;;;;;;;1.92;1.00;;;;;;;21.05;54.04;99275.78;10378852;28;20080;-62
2023/08/27 09:30:36;;;;;;;2.10;1.20;;;;;;;21.11;53.62;99285.75;10384247;28;20037;-62
2023/08/27 09:35:40;;;;;;;1.08;0.88;;;;;;;21.34;53.13;99281.31;10383986;28;20147;-60
2023/08/27 09:40:43;;;;;;;1.52;0.93;;;;;;;21.66;52.17;99267.78;10402380;28;20044;-61
2023/08/27 09:45:45;;;;;;;1.17;0.90;;;;;;;22.04;51.71;99274.00;10390007;28;20034;-62
2023/08/27 09:50:48;;;;;;;0.80;0.80;;;;;;;22.34;51.00;99265.06;10396267;28;20037;-61
2023/08/27 09:55:50;;;;;;;0.80;0.73;;;;;;;22.60;50.30;99252.09;10389651;28;20548;-61
2023/08/27 10:00:59;;;;;;;1.42;0.90;;;;;;;23.20;47.78;99227.84;10391614;28;20052;-60
2023/08/27 10:06:01;;;;;;;1.27;0.77;;;;;;;23.45;47.80;99223.81;10391140;28;20132;-61
2023/08/27 10:11:11;;;;;;;1.98;0.80;;;;;;;23.61;46.27;99228.06;10393782;28;20472;-62
2023/08/27 10:16:14;;;;;;;1.38;1.00;;;;;;;23.62;46.75;99224.38;10386884;28;20057;-61
2023/08/27 10:21:18;;;;;;;1.38;0.90;;;;;;;23.59;46.38;99214.09;10392227;28;20083;-62
2023/08/27 10:26:23;;;;;;;1.58;0.90;;;;;;;23.33;46.69;99203.16;10389765;28;20057;-61
2023/08/27 10:31:26;;;;;;;1.90;0.98;;;;;;;23.45;46.37;99215.00;10392360;28;20514;-61
2023/08/27 10:36:34;;;;;;;1.23;0.70;;;;;;;23.44;45.23;99222.16;10389177;28;20146;-61
2023/08/27 10:41:36;;;;;;;1.43;0.80;;;;;;;23.39;46.38;99202.38;10391696;28;20224;-61
2023/08/27 10:46:39;;;;;;;1.10;0.75;;;;;;;23.06;45.48;99214.53;10407061;28;20488;-61
2023/08/27 10:51:40;;;;;;;0.75;0.75;;;;;;;22.62;45.93;99226.09;10391435;28;20048;-61
2023/08/27 10:56:47;;;;;;;0.70;0.70;;;;;;;22.33;46.04;99227.94;10385542;28;20481;-62
2023/08/27 11:01:54;;;;;;;0.90;0.65;;;;;;;21.88;45.62;99232.34;10390258;28;20412;-62
2023/08/27 11:07:07;;;;;;;0.82;0.65;;;;;;;21.85;45.64;99235.38;10388474;28;20041;-62
2023/08/27 11:12:26;;;;;;;1.40;0.80;;;;;;;22.03;46.27;99237.72;10387749;28;20464;-61
2023/08/27 11:17:28;;;;;;;2.08;0.65;;;;;;;22.44;46.21;99233.63;10389651;28;20049;-60
2023/08/27 11:22:31;;;;;;;0.93;0.60;;;;;;;22.84;45.62;99243.00;10389141;28;20044;-61
2023/08/27 11:27:34;;;;;;;0.75;0.60;;;;;;;23.33;44.94;99229.81;10389684;28;20289;-62
2023/08/27 11:32:36;;;;;;;0.98;0.75;;;;;;;23.39;44.09;99245.09;10387450;28;20602;-62
2023/08/27 11:37:38;;;;;;;1.50;1.00;;;;;;;23.56;43.57;99235.81;10391475;28;20417;-61
2023/08/27 11:42:51;;;;;;;0.77;0.60;;;;;;;23.62;42.45;99234.22;10386964;28;20532;-62
2023/08/27 11:47:53;;;;;;;1.42;0.80;;;;;;;23.42;42.85;99218.03;10388234;28;20501;-62
2023/08/27 11:52:55;;;;;;;1.27;0.70;;;;;;;23.11;43.34;99220.13;10388694;28;20045;-61
2023/08/27 11:57:58;;;;;;;1.73;1.13;;;;;;;23.32;42.84;99218.31;10388284;28;20167;-61
2023/08/27 12:03:02;;;;;;;1.30;0.80;;;;;;;23.42;42.88;99199.34;10385936;28;20355;-61
2023/08/27 12:08:07;;;;;;;1.45;0.93;;;;;;;23.62;41.73;99199.50;10386455;28;20155;-60
2023/08/27 12:13:09;;;;;;;1.20;0.85;;;;;;;23.69;42.34;99195.91;10392626;28;20521;-61
2023/08/27 12:18:11;;;;;;;1.25;0.70;;;;;;;23.79;41.96;99195.56;10390047;28;20547;-61
2023/08/27 12:23:13;;;;;;;0.80;0.70;;;;;;;23.75;41.58;99196.97;10388700;28;20045;-61
2023/08/27 12:28:17;;;;;;;2.58;0.90;;;;;;;23.69;40.73;99179.88;10389323;28;20079;-61
2023/08/27 12:33:19;;;;;;;0.70;0.70;;;;;;;23.72;40.87;99182.16;10386344;28;20845;-61
2023/08/27 12:38:23;;;;;;;0.70;0.68;;;;;;;23.73;40.46;99183.81;10386891;28;20458;-62
2023/08/27 12:43:25;;;;;;;0.93;0.60;;;;;;;23.84;40.13;99195.81;10387561;28;20421;-61
2023/08/27 12:48:27;;;;;;;1.42;0.63;;;;;;;24.02;39.64;99201.50;10387534;28;20114;-61
2023/08/27 12:53:29;;;;;;;0.50;0.45;;;;;;;24.05;39.15;99199.25;10384651;28;20425;-62
2023/08/27 12:58:31;;;;;;;1.70;0.63;;;;;;;23.86;39.32;99197.25;10389849;28;20579;-61
2023/08/27 13:03:33;;;;;;;1.65;0.77;;;;;;;23.89;38.72;99188.88;10387121;28;20064;-61
2023/08/27 13:08:35;;;;;;;1.45;0.95;;;;;;;24.19;38.74;99166.28;10384807;28;20501;-61
2023/08/27 13:13:37;;;;;;;1.10;0.80;;;;;;;24.27;38.25;99171.47;10384570;28;20124;-61
2023/08/27 13:18:43;;;;;;;2.60;0.75;;;;;;;24.23;38.05;99167.53;10383240;28;20048;-61
2023/08/27 13:23:45;;;;;;;1.48;0.70;;;;;;;24.42;36.97;99163.31;10377684;28;20045;-61
2023/08/27 13:28:47;;;;;;;2.63;0.82;;;;;;;24.15;37.48;99165.03;10384016;28;20041;-62
2023/08/27 13:33:49;;;;;;;1.38;0.60;;;;;;;24.26;36.24;99172.50;10383931;28;20399;-61
2023/08/27 13:38:51;;;;;;;0.68;0.60;;;;;;;24.43;36.69;99186.34;10382843;28;20409;-61
2023/08/27 13:43:53;;;;;;;0.80;0.68;;;;;;;24.58;36.25;99191.56;10385561;28;20029;-62
2023/08/27 13:48:55;;;;;;;2.25;0.85;;;;;;;24.28;36.75;99213.22;10381459;28;20183;-62
2023/08/27 13:53:57;;;;;;;1.55;0.80;;;;;;;23.87;37.84;99220.28;10382863;28;20257;-62
2023/08/27 13:58:59;;;;;;;1.05;0.70;;;;;;;23.33;38.30;99216.50;10384065;28;20053;-61
2023/08/27 14:04:01;;;;;;;1.55;0.77;;;;;;;23.41;38.74;99198.50;10382838;28;20037;-61
2023/08/27 14:09:04;;;;;;;1.35;0.80;;;;;;;23.61;38.54;99197.88;10395484;28;20042;-61
2023/08/27 14:14:06;;;;;;;3.20;1.20;;;;;;;23.67;38.38;99195.28;10381357;28;20532;-61
2023/08/27 14:19:08;;;;;;;0.57;0.57;;;;;;;23.77;38.23;99201.09;10383558;28;20052;-62
2023/08/27 14:24:10;;;;;;;0.70;0.60;;;;;;;23.76;38.31;99183.41;10389607;28;20045;-61
2023/08/27 14:29:12;;;;;;;3.15;1.00;;;;;;;23.94;38.03;99181.06;10430812;28;20034;-61
2023/08/27 14:34:14;;;;;;;0.55;0.55;;;;;;;23.73;38.25;99191.00;10387458;28;20051;-62
2023/08/27 14:39:17;;;;;;;2.58;0.80;;;;;;;23.59;38.04;99182.06;10391651;28;20053;-62
2023/08/27 14:44:19;;;;;;;1.60;0.90;;;;;;;23.65;37.61;99178.63;10393269;28;20038;-62
2023/08/27 14:49:21;;;;;;;1.02;0.70;;;;;;;23.97;37.61;99163.84;10391505;28;20129;-61
2023/08/27 14:54:23;;;;;;;1.30;0.80;;;;;;;23.68;37.87;99186.22;10395385;28;21460;-62
2023/08/27 14:59:37;;;;;;;1.63;0.88;;;;;;;23.15;37.02;99173.38;10389755;28;20049;-62
2023/08/27 15:04:43;;;;;;;0.80;0.70;;;;;;;23.08;38.33;99177.84;10394522;28;20038;-60
2023/08/27 15:09:45;;;;;;;1.58;0.85;;;;;;;23.04;38.58;99187.22;10388334;28;20053;-60
2023/08/27 15:14:47;;;;;;;0.70;0.70;;;;;;;23.10;38.03;99181.97;10389755;28;20049;-61
2023/08/27 15:19:49;;;;;;;1.08;0.60;;;;;;;22.95;38.48;99178.53;10389905;28;20042;-60
2023/08/27 15:24:51;;;;;;;1.10;0.52;;;;;;;22.61;38.23;99191.63;10385568;28;20047;-60
2023/08/27 15:29:54;;;;;;;1.77;0.70;;;;;;;22.32;38.46;99196.97;10388470;28;20050;-60
2023/08/27 15:34:56;;;;;;;0.82;0.63;;;;;;;22.25;37.99;99196.88;10387309;28;20474;-60
2023/08/27 15:39:58;;;;;;;1.52;0.80;;;;;;;22.23;38.47;99192.75;10388602;28;20060;-62
2023/08/27 15:45:01;;;;;;;1.30;0.60;;;;;;;22.22;38.51;99191.09;10384988;28;20170;-61
2023/08/27 15:50:03;;;;;;;1.75;0.80;;;;;;;21.97;38.85;99185.16;10392785;28;20205;-61
2023/08/27 15:55:06;;;;;;;1.00;0.77;;;;;;;21.89;38.87;99191.41;10384001;28;20037;-61
2023/08/27 16:00:09;;;;;;;1.30;0.80;;;;;;;21.63;39.24;99188.31;10389249;28;20049;-61
2023/08/27 16:05:15;;;;;;;1.27;0.75;;;;;;;21.49;39.46;99206.91;10387122;28;20063;-61
2023/08/27 16:10:17;;;;;;;1.33;0.73;;;;;;;21.38;40.03;99205.50;10387265;28;20057;-61
2023/08/27 16:15:19;;;;;;;1.65;0.93;;;;;;;21.35;40.14;99215.66;10383482;28;20034;-61
2023/08/27 16:20:21;;;;;;;7.10;1.27;;;;;;;21.11;41.16;99253.03;10386052;28;20045;-61
2023/08/27 16:25:23;;;;;;;5.32;1.33;;;;;;;19.74;45.78;99317.03;10382197;28;20414;-61
2023/08/27 16:30:25;;;;;;;1.10;0.82;;;;;;;18.73;49.04;99320.66;10391331;28;20060;-62
2023/08/27 16:35:27;;;;;;;1.10;0.70;;;;;;;18.26;50.79;99306.16;10384968;28;20075;-61
2023/08/27 16:40:37;;;;;;;3.58;1.05;;;;;;;18.02;54.94;99290.88;10388183;28;20045;-62
2023/08/27 16:45:40;;;;;;;2.55;1.20;;;;;;;17.89;53.51;99274.59;10383160;28;20064;-60
2023/08/27 16:50:41;;;;;;;3.60;1.15;;;;;;;17.78;55.00;99277.47;10386953;28;20063;-60
2023/08/27 16:55:44;;;;;;;2.33;0.90;;;;;;;17.75;55.85;99273.31;10385306;28;20406;-61
2023/08/27 17:00:46;;;;;;;5.00;1.42;;;;;;;17.92;56.59;99273.44;10387304;28;20053;-62
2023/08/27 17:05:55;;;;;;;2.58;1.10;;;;;;;18.02;59.37;99282.13;10384732;28;20128;-61
2023/08/27 17:10:57;;;;;;;0.70;0.60;;;;;;;17.99;57.92;99277.16;10388300;28;20401;-62
2023/08/27 17:16:00;;;;;;;1.95;0.68;;;;;;;18.04;58.07;99283.63;10384352;28;20621;-62
2023/08/27 17:21:03;;;;;;;6.43;1.00;;;;;;;17.98;57.75;99289.53;10384503;28;20533;-61
2023/08/27 17:26:07;;;;;;;2.00;0.73;;;;;;;17.84;57.98;99303.31;10383535;28;20061;-61
2023/08/27 17:31:09;;;;;;;1.55;0.65;;;;;;;17.64;58.27;99293.88;10386020;28;20053;-62
2023/08/27 17:36:11;;;;;;;2.63;0.98;;;;;;;17.59;58.47;99314.66;10385653;28;20559;-61
2023/08/27 17:41:16;;;;;;;1.92;0.90;;;;;;;17.61;58.92;99313.53;10386037;28;20160;-61
2023/08/27 17:46:18;;;;;;;0.90;0.77;;;;;;;17.56;58.92;99314.97;10382239;28;20274;-61
2023/08/27 17:51:20;;;;;;;0.98;0.73;;;;;;;16.90;59.79;99335.47;10384442;28;20453;-61
2023/08/27 17:56:22;;;;;;;1.85;0.63;;;;;;;17.05;60.21;99334.03;10385800;28;20130;-62
2023/08/27 18:01:24;;;;;;;5.03;1.98;;;;;;;17.22;59.89;99333.22;10391918;28;20485;-62
2023/08/27 18:06:26;;;;;;;2.28;0.90;;;;;;;17.12;59.83;99331.66;10386766;28;20055;-62
2023/08/27 18:11:28;;;;;;;2.85;0.73;;;;;;;17.06;60.50;99337.50;10392630;28;20053;-62
2023/08/27 18:16:30;;;;;;;2.85;0.90;;;;;;;16.87;60.98;99349.81;10397446;28;20060;-62
2023/08/27 18:21:32;;;;;;;1.58;0.88;;;;;;;16.65;61.66;99354.66;10391153;28;20045;-62
2023/08/27 18:26:34;;;;;;;1.05;0.93;;;;;;;16.44;61.98;99357.47;10389432;28;20577;-62
2023/08/27 18:31:36;;;;;;;1.45;0.98;;;;;;;16.28;62.84;99359.00;10397989;28;20045;-62
2023/08/27 18:36:38;;;;;;;0.90;0.80;;;;;;;16.03;62.84;99358.59;10397221;28;20072;-61
2023/08/27 18:41:41;;;;;;;1.38;0.80;;;;;;;15.88;63.35;99370.53;10390582;28;20502;-61
2023/08/27 18:46:43;;;;;;;3.08;0.95;;;;;;;15.92;63.61;99400.09;10390007;28;20037;-61
2023/08/27 18:51:45;;;;;;;1.23;0.90;;;;;;;15.86;63.73;99409.41;10388715;28;20508;-61
2023/08/27 18:56:48;;;;;;;1.60;0.80;;;;;;;15.83;64.08;99419.41;10389186;28;20060;-61
2023/08/27 19:01:50;;;;;;;2.15;0.70;;;;;;;15.93;63.48;99425.50;10390415;28;20516;-61
2023/08/27 19:06:52;;;;;;;2.10;1.00;;;;;;;15.93;63.47;99431.63;10390749;28;20041;-61
2023/08/27 19:11:54;;;;;;;0.90;0.70;;;;;;;15.84;63.95;99442.97;10389545;28;20409;-61
2023/08/27 19:16:56;;;;;;;1.55;0.82;;;;;;;15.94;63.69;99443.81;10392848;28;20059;-61
2023/08/27 19:21:58;;;;;;;1.15;0.75;;;;;;;15.81;63.40;99459.09;10394811;28;20041;-61
2023/08/27 19:27:01;;;;;;;0.93;0.73;;;;;;;15.69;63.47;99464.63;10385404;28;20060;-61
2023/08/27 19:32:05;;;;;;;1.33;0.93;;;;;;;15.59;63.48;99469.03;10391476;28;20045;-61
2023/08/27 19:37:07;;;;;;;1.27;0.75;;;;;;;15.50;63.61;99481.19;10392064;28;20133;-61
2023/08/27 19:42:09;;;;;;;1.42;0.98;;;;;;;15.39;63.58;99470.72;10390144;28;20049;-62
2023/08/27 19:47:11;;;;;;;2.58;0.90;;;;;;;15.25;63.82;99476.34;10392289;28;20739;-62
2023/08/27 19:52:14;;;;;;;0.70;0.70;;;;;;;15.16;64.29;99477.16;10393231;28;20100;-61
2023/08/27 19:57:16;;;;;;;1.10;0.88;;;;;;;15.10;64.38;99485.56;10391580;28;20115;-60
2023/08/27 20:02:20;;;;;;;1.75;0.95;;;;;;;15.00;64.24;99488.13;10390196;28;20052;-61
2023/08/27 20:07:23;;;;;;;1.52;0.77;;;;;;;14.95;64.50;99490.34;10390934;28;20091;-61
2023/08/27 20:12:25;;;;;;;1.85;0.90;;;;;;;14.88;64.42;99488.38;10387838;28;20307;-61
2023/08/27 20:17:27;;;;;;;0.60;0.60;;;;;;;14.79;64.70;99504.91;10397164;28;20053;-61
2023/08/27 20:22:29;;;;;;;3.55;1.20;;;;;;;14.73;64.68;99508.91;10429418;28;20542;-61
2023/08/27 20:27:31;;;;;;;1.10;0.88;;;;;;;14.69;64.82;99514.53;10400093;28;20053;-61
2023/08/27 20:32:33;;;;;;;0.93;0.80;;;;;;;14.54;65.08;99525.38;10393829;28;20441;-61
2023/08/27 20:37:36;;;;;;;1.17;0.90;;;;;;;14.56;64.96;99526.09;10399664;28;20448;-60
2023/08/27 20:42:40;;;;;;;1.27;0.70;;;;;;;14.50;64.87;99529.22;10400029;28;20048;-60
2023/08/27 20:47:42;;;;;;;2.20;0.90;;;;;;;14.43;64.98;99541.16;10394184;28;20196;-61
2023/08/27 20:52:45;;;;;;;1.55;0.95;;;;;;;14.40;65.09;99541.44;10387837;28;20497;-61
2023/08/27 20:57:47;;;;;;;5.78;1.17;;;;;;;14.39;65.25;99549.47;10391355;28;20072;-60
2023/08/27 21:02:49;;;;;;;0.82;0.75;;;;;;;14.38;65.02;99545.97;10424271;28;20124;-61
2023/08/27 21:07:51;;;;;;;1.38;0.65;;;;;;;14.31;65.42;99557.94;10394968;28;20041;-60
2023/08/27 21:12:53;;;;;;;2.83;0.90;;;;;;;14.20;65.56;99559.78;10390641;28;20911;-60
2023/08/27 21:17:55;;;;;;;0.95;0.75;;;;;;;14.02;66.15;99556.00;10401138;28;20049;-61
2023/08/27 21:22:57;;;;;;;1.05;0.80;;;;;;;13.92;66.71;99566.41;10393839;28;20255;-60
2023/08/27 21:28:00;;;;;;;0.88;0.88;;;;;;;13.91;66.50;99554.22;10389417;28;20510;-60
2023/08/27 21:33:02;;;;;;;2.72;0.88;;;;;;;13.90;66.56;99564.88;10386402;28;20049;-60
2023/08/27 21:38:06;;;;;;;0.77;0.73;;;;;;;13.85;66.50;99567.84;10391416;28;20497;-60
2023/08/27 21:43:09;;;;;;;1.85;0.80;;;;;;;13.82;65.86;99570.69;10386723;28;20041;-60
2023/08/27 21:48:11;;;;;;;0.85;0.50;;;;;;;13.56;66.21;99571.91;10392228;28;20042;-60
2023/08/27 21:53:14;;;;;;;0.80;0.70;;;;;;;13.44;66.45;99567.59;10391171;28;20044;-60
2023/08/27 21:58:16;;;;;;;2.17;1.00;;;;;;;13.27;66.42;99565.44;10390907;28;20049;-60
2023/08/27 22:03:18;;;;;;;3.03;1.08;;;;;;;13.20;66.61;99567.69;10387244;28;20048;-60
2023/08/27 22:08:20;;;;;;;1.17;0.70;;;;;;;13.33;66.64;99570.22;10392189;28;20472;-60
2023/08/27 22:13:22;;;;;;;1.13;0.90;;;;;;;13.41;66.61;99570.44;10385064;28;20477;-61
2023/08/27 22:18:24;;;;;;;0.70;0.70;;;;;;;13.36;66.95;99569.94;10387543;28;20552;-60
2023/08/27 22:23:26;;;;;;;1.33;0.85;;;;;;;13.42;66.63;99572.09;10386344;28;20042;-60
2023/08/27 22:28:28;;;;;;;0.95;0.90;;;;;;;13.35;66.69;99568.28;10385832;28;20048;-60
2023/08/27 22:33:30;;;;;;;0.95;0.75;;;;;;;13.32;66.53;99582.50;10389273;28;20229;-61
2023/08/27 22:38:32;;;;;;;1.52;0.90;;;;;;;13.30;66.39;99583.56;10417026;28;20048;-61
2023/08/27 22:43:34;;;;;;;0.88;0.80;;;;;;;13.21;66.60;99585.09;10391390;28;20391;-61
2023/08/27 22:48:36;;;;;;;2.38;1.42;;;;;;;13.35;66.81;99597.19;10392040;28;20120;-61
2023/08/27 22:53:38;;;;;;;3.15;0.80;;;;;;;13.52;66.33;99594.97;10398922;28;20037;-61
2023/08/27 22:58:40;;;;;;;2.53;0.75;;;;;;;13.55;66.30;99596.53;10392159;28;20497;-59
2023/08/27 23:03:42;;;;;;;1.17;0.90;;;;;;;13.51;66.14;99595.94;10409763;28;20574;-61
2023/08/27 23:08:45;;;;;;;1.00;0.90;;;;;;;13.46;66.32;99589.34;10396216;28;20038;-62
2023/08/27 23:13:47;;;;;;;1.38;0.77;;;;;;;13.64;66.28;99594.00;10396333;28;20045;-61
2023/08/27 23:18:49;;;;;;;0.95;0.90;;;;;;;13.70;65.81;99592.69;10392441;28;20376;-61
2023/08/27 23:23:53;;;;;;;0.93;0.80;;;;;;;13.69;65.98;99591.03;10391023;28;20611;-61
2023/08/27 23:28:56;;;;;;;1.13;0.90;;;;;;;13.73;66.04;99590.69;10394475;28;20425;-61